Time;durP1;ratioP1;P1;durP2;ratioP2;P2;SDS_P1;SDS_P2;PMS_P1;PMS_P2;Temp;Humidity;BMP_temperature;BMP_pressure;BME280_temperature;BME280_humidity;BME280_pressure;Samples;Min_cycle;Max_cycle;Signal;HPM_P1;HPM_P2
2021/01/24 00:01:40;;;;;;;9.43;8.63;;;-0.40;77.70;;;;;;5195774;28;20049;-76
2021/01/24 00:04:12;;;;;;;9.32;8.52;;;-0.50;77.80;;;;;;5178542;28;20041;-76
2021/01/24 00:06:43;;;;;;;8.98;8.20;;;-0.50;78.10;;;;;;5193510;28;20079;-76
2021/01/24 00:09:15;;;;;;;8.80;8.10;;;-0.50;78.40;;;;;;5196144;28;20041;-77
2021/01/24 00:11:46;;;;;;;8.90;8.20;;;-0.50;77.90;;;;;;5161574;28;20123;-76
2021/01/24 00:14:17;;;;;;;9.40;8.70;;;-0.40;77.80;;;;;;5193212;28;20046;-78
2021/01/24 00:16:49;;;;;;;9.30;8.60;;;-0.40;77.80;;;;;;5196590;28;20050;-78
2021/01/24 00:19:20;;;;;;;9.23;8.43;;;-0.30;78.20;;;;;;5193403;28;20167;-78
2021/01/24 00:21:52;;;;;;;9.68;8.98;;;-0.30;79.00;;;;;;5195820;28;20045;-77
2021/01/24 00:24:23;;;;;;;9.00;8.30;;;-0.30;79.20;;;;;;5196005;28;20499;-77
2021/01/24 00:26:55;;;;;;;9.25;8.55;;;-0.30;78.80;;;;;;5190446;28;20061;-77
2021/01/24 00:29:26;;;;;;;9.75;8.95;;;-0.30;79.30;;;;;;5193051;28;20115;-76
2021/01/24 00:31:58;;;;;;;9.30;8.60;;;-0.20;78.90;;;;;;5192778;28;20092;-76
2021/01/24 00:34:30;;;;;;;9.00;8.30;;;-0.20;79.10;;;;;;5193697;28;20045;-74
2021/01/24 00:37:02;;;;;;;9.10;8.40;;;-0.10;79.00;;;;;;5188641;28;20053;-76
2021/01/24 00:39:34;;;;;;;9.65;8.95;;;-0.10;78.80;;;;;;5191872;28;20045;-76
2021/01/24 00:42:05;;;;;;;8.95;8.25;;;-0.10;78.70;;;;;;5194571;28;20038;-76
2021/01/24 00:44:37;;;;;;;9.50;8.80;;;0.00;78.30;;;;;;5195537;28;20037;-76
2021/01/24 00:47:09;;;;;;;9.05;8.25;;;0.00;78.30;;;;;;5193794;28;20049;-76
2021/01/24 00:49:41;;;;;;;9.45;8.73;;;0.00;78.20;;;;;;5190633;28;20042;-76
2021/01/24 00:52:12;;;;;;;9.45;8.75;;;0.00;78.30;;;;;;5185459;28;20774;-75
2021/01/24 00:54:44;;;;;;;8.80;8.10;;;0.00;79.00;;;;;;5172328;28;20504;-77
2021/01/24 00:57:16;;;;;;;8.65;7.95;;;0.00;79.40;;;;;;5193789;28;20099;-77
2021/01/24 00:59:47;;;;;;;9.38;8.68;;;-0.10;80.40;;;;;;5193863;28;20096;-77
2021/01/24 01:02:18;;;;;;;9.40;8.70;;;0.00;80.10;;;;;;5195067;28;20037;-76
2021/01/24 01:04:50;;;;;;;9.27;8.57;;;-0.10;79.70;;;;;;5195878;28;20120;-76
2021/01/24 01:07:21;;;;;;;9.57;8.88;;;-0.10;79.70;;;;;;5193536;28;20072;-76
2021/01/24 01:09:53;;;;;;;9.10;8.40;;;-0.10;79.80;;;;;;5193922;28;20119;-76
2021/01/24 01:12:25;;;;;;;9.13;8.43;;;0.00;80.00;;;;;;5192178;28;20523;-75
2021/01/24 01:14:56;;;;;;;9.15;8.45;;;0.00;80.10;;;;;;5193394;28;20037;-78
2021/01/24 01:17:28;;;;;;;9.38;8.68;;;0.00;80.50;;;;;;5186661;28;20766;-76
2021/01/24 01:19:59;;;;;;;9.80;9.10;;;0.10;80.90;;;;;;5193990;28;20053;-77
2021/01/24 01:22:31;;;;;;;9.50;8.80;;;0.10;80.70;;;;;;5194122;28;20037;-77
2021/01/24 01:25:03;;;;;;;10.02;9.20;;;0.20;80.50;;;;;;5173206;28;20041;-79
2021/01/24 01:27:37;;;;;;;10.07;9.38;;;0.20;80.40;;;;;;5189619;28;20068;-76
2021/01/24 01:30:09;;;;;;;10.40;9.60;;;0.30;80.80;;;;;;5192640;28;20106;-76
2021/01/24 01:32:41;;;;;;;9.93;9.23;;;0.30;81.30;;;;;;5192548;28;20064;-79
2021/01/24 01:35:13;;;;;;;10.18;9.38;;;0.30;81.80;;;;;;5171267;28;20181;-76
2021/01/24 01:37:44;;;;;;;10.18;9.38;;;0.40;82.30;;;;;;5193144;28;20513;-76
2021/01/24 01:40:16;;;;;;;10.45;9.55;;;0.40;82.50;;;;;;5192943;28;20044;-76
2021/01/24 01:42:47;;;;;;;9.70;9.00;;;0.40;82.40;;;;;;5193434;28;20037;-76
2021/01/24 01:45:18;;;;;;;10.30;9.50;;;0.50;81.90;;;;;;5173550;28;20107;-76
2021/01/24 01:47:52;;;;;;;10.70;9.90;;;0.50;82.40;;;;;;5192889;28;20064;-76
2021/01/24 01:50:23;;;;;;;10.30;9.57;;;0.50;82.70;;;;;;5182824;28;20068;-75
2021/01/24 01:52:59;;;;;;;11.18;10.30;;;0.40;83.50;;;;;;5170756;28;20033;-75
2021/01/24 01:55:31;;;;;;;10.73;9.93;;;0.40;84.40;;;;;;5191733;28;20056;-76
2021/01/24 01:58:03;;;;;;;10.63;9.82;;;0.30;85.30;;;;;;5193528;28;20052;-76
2021/01/24 02:00:34;;;;;;;10.48;9.68;;;0.40;85.30;;;;;;5189919;28;20045;-76
2021/01/24 02:03:20;;;;;;;10.93;10.13;;;0.40;85.00;;;;;;5193143;28;20056;-75
2021/01/24 02:06:16;;;;;;;11.57;10.68;;;0.50;84.80;;;;;;5193143;28;20037;-77
2021/01/24 02:09:06;;;;;;;10.82;10.02;;;0.50;84.80;;;;;;5183275;28;20064;-76
2021/01/24 02:11:56;;;;;;;11.07;10.27;;;0.60;84.60;;;;;;5190135;28;20060;-76
2021/01/24 02:14:35;;;;;;;11.10;10.30;;;0.70;84.50;;;;;;5200296;28;20042;-75
2021/01/24 02:17:11;;;;;;;11.18;10.27;;;0.70;84.50;;;;;;5176956;28;20053;-78
2021/01/24 02:20:00;;;;;;;11.40;10.60;;;0.70;84.40;;;;;;5191088;28;20125;-76
2021/01/24 02:22:35;;;;;;;11.15;10.35;;;0.70;84.60;;;;;;5192651;28;20164;-76
2021/01/24 02:25:15;;;;;;;11.63;10.82;;;0.70;84.70;;;;;;5181751;28;20484;-76
2021/01/24 02:28:05;;;;;;;11.00;10.20;;;0.70;84.40;;;;;;5194396;28;20449;-77
2021/01/24 02:30:38;;;;;;;11.40;10.60;;;0.70;84.20;;;;;;5193750;28;20045;-79
2021/01/24 02:33:14;;;;;;;11.23;10.43;;;0.70;84.20;;;;;;5151337;28;20049;-75
2021/01/24 02:35:58;;;;;;;11.30;10.40;;;0.80;84.00;;;;;;5192496;28;20056;-75
2021/01/24 02:38:31;;;;;;;10.82;10.02;;;0.80;84.10;;;;;;5183263;28;20042;-76
2021/01/24 02:41:06;;;;;;;10.63;9.82;;;0.80;83.60;;;;;;5192250;28;20056;-76
2021/01/24 02:43:43;;;;;;;10.50;9.68;;;0.90;83.70;;;;;;5195164;28;20513;-75
2021/01/24 02:46:16;;;;;;;10.70;9.90;;;0.90;83.70;;;;;;5193300;28;20076;-75
2021/01/24 02:48:51;;;;;;;11.20;10.30;;;0.90;83.50;;;;;;5192476;28;20068;-76
2021/01/24 02:51:23;;;;;;;10.85;10.05;;;0.90;83.90;;;;;;5192886;28;20512;-75
2021/01/24 02:53:55;;;;;;;10.90;10.10;;;0.80;84.20;;;;;;5192678;28;20041;-77
2021/01/24 02:56:27;;;;;;;10.98;10.18;;;0.60;84.70;;;;;;5184560;28;20525;-76
2021/01/24 02:59:00;;;;;;;11.02;10.23;;;0.60;84.80;;;;;;5193968;28;20041;-76
2021/01/24 03:01:32;;;;;;;10.75;9.95;;;0.60;84.40;;;;;;5191986;28;20042;-77
2021/01/24 03:04:03;;;;;;;10.45;9.65;;;0.60;84.40;;;;;;5176161;28;20056;-78
2021/01/24 03:06:35;;;;;;;10.73;9.93;;;0.60;83.90;;;;;;5194428;28;20053;-76
2021/01/24 03:09:07;;;;;;;11.10;10.30;;;0.70;83.40;;;;;;5192753;28;20057;-77
2021/01/24 03:11:42;;;;;;;11.13;10.32;;;0.60;83.00;;;;;;5186038;28;20424;-77
2021/01/24 03:14:24;;;;;;;9.90;9.20;;;0.60;82.60;;;;;;5196141;28;20045;-75
2021/01/24 03:16:57;;;;;;;10.18;9.48;;;0.60;81.40;;;;;;5192892;28;20322;-77
2021/01/24 03:19:31;;;;;;;10.48;9.68;;;0.70;81.60;;;;;;5195028;28;20044;-77
2021/01/24 03:22:03;;;;;;;10.50;9.70;;;0.70;79.90;;;;;;5195838;28;20053;-77
2021/01/24 03:24:37;;;;;;;10.00;9.20;;;0.70;78.20;;;;;;5197283;28;20042;-76
2021/01/24 03:27:09;;;;;;;9.95;9.25;;;0.70;78.70;;;;;;5196403;28;20076;-77
2021/01/24 03:29:41;;;;;;;9.80;9.10;;;0.70;76.60;;;;;;5192896;28;20041;-78
2021/01/24 03:32:13;;;;;;;9.85;8.95;;;0.80;76.30;;;;;;5194114;28;20055;-78
2021/01/24 03:34:46;;;;;;;9.30;8.60;;;0.80;73.30;;;;;;5196052;28;20045;-79
2021/01/24 03:37:17;;;;;;;9.40;8.70;;;0.80;72.50;;;;;;5188853;28;20053;-77
2021/01/24 03:39:48;;;;;;;10.07;9.38;;;0.90;72.30;;;;;;5196627;28;20111;-78
2021/01/24 03:42:20;;;;;;;9.32;8.63;;;0.90;72.50;;;;;;5196021;28;20045;-78
2021/01/24 03:44:51;;;;;;;9.65;8.90;;;0.90;73.50;;;;;;5175006;28;20441;-76
2021/01/24 03:47:23;;;;;;;9.13;8.43;;;0.90;70.70;;;;;;5195589;28;20387;-79
2021/01/24 03:49:54;;;;;;;9.15;8.45;;;0.90;72.30;;;;;;5194436;28;20029;-77
2021/01/24 03:52:26;;;;;;;9.20;8.50;;;0.90;71.70;;;;;;5194044;28;20037;-79
2021/01/24 03:54:57;;;;;;;9.55;8.85;;;0.90;72.40;;;;;;5197162;28;20544;-81
2021/01/24 03:57:29;;;;;;;10.88;8.60;;;0.90;72.80;;;;;;5195100;28;20045;-79
2021/01/24 04:00:02;;;;;;;9.68;8.98;;;0.90;69.20;;;;;;5194546;28;20840;-78
2021/01/24 04:02:43;;;;;;;9.52;8.82;;;0.90;72.90;;;;;;5195140;28;20106;-78
2021/01/24 04:05:15;;;;;;;9.23;8.52;;;0.90;72.40;;;;;;5196277;28;20218;-78
2021/01/24 04:07:46;;;;;;;9.40;8.70;;;1.00;71.50;;;;;;5196421;28;20436;-76
2021/01/24 04:10:18;;;;;;;9.00;8.30;;;1.10;72.70;;;;;;5195226;28;20119;-78
2021/01/24 04:12:49;;;;;;;9.07;8.38;;;1.10;73.30;;;;;;5193909;28;20460;-77
2021/01/24 04:15:21;;;;;;;9.68;8.98;;;1.10;73.60;;;;;;5194850;28;20053;-76
2021/01/24 04:17:52;;;;;;;9.63;8.93;;;1.20;74.00;;;;;;5195348;28;20038;-77
2021/01/24 04:20:24;;;;;;;9.65;8.95;;;1.20;74.60;;;;;;5193691;28;20038;-76
2021/01/24 04:22:55;;;;;;;9.57;8.88;;;1.20;75.20;;;;;;5189638;28;20084;-76
2021/01/24 04:25:27;;;;;;;9.90;9.20;;;1.20;75.40;;;;;;5192252;28;20097;-76
2021/01/24 04:27:59;;;;;;;10.32;9.52;;;1.30;76.90;;;;;;5196181;28;20034;-77
2021/01/24 04:30:30;;;;;;;9.98;9.27;;;1.30;77.40;;;;;;5181573;28;20042;-75
2021/01/24 04:33:04;;;;;;;9.93;9.23;;;1.20;77.20;;;;;;5194385;28;20947;-76
2021/01/24 04:35:36;;;;;;;10.35;9.55;;;1.30;77.30;;;;;;5195775;28;20175;-75
2021/01/24 04:38:07;;;;;;;10.02;9.32;;;1.20;78.60;;;;;;5193423;28;20457;-77
2021/01/24 04:40:39;;;;;;;9.88;9.18;;;1.20;78.10;;;;;;5195327;28;20095;-75
2021/01/24 04:43:11;;;;;;;9.57;8.88;;;1.10;77.60;;;;;;5193913;28;20115;-75
2021/01/24 04:45:43;;;;;;;9.77;9.07;;;1.10;76.90;;;;;;5194136;28;20570;-78
2021/01/24 04:48:14;;;;;;;9.30;8.60;;;0.90;73.50;;;;;;5190191;28;20049;-76
2021/01/24 04:50:46;;;;;;;9.40;8.70;;;0.70;72.40;;;;;;5190276;28;20048;-77
2021/01/24 04:53:19;;;;;;;9.70;9.00;;;0.60;73.90;;;;;;5172894;28;20098;-79
2021/01/24 04:55:52;;;;;;;9.07;8.38;;;0.60;74.30;;;;;;5195156;28;20052;-76
2021/01/24 04:58:23;;;;;;;9.75;8.95;;;0.60;74.10;;;;;;5192932;28;20041;-77
2021/01/24 05:00:55;;;;;;;9.13;8.43;;;0.50;74.80;;;;;;5193113;28;20042;-79
2021/01/24 05:03:27;;;;;;;9.70;9.00;;;0.50;74.50;;;;;;5192818;28;20052;-76
2021/01/24 05:05:58;;;;;;;8.75;8.05;;;0.50;74.90;;;;;;5193812;28;20045;-75
2021/01/24 05:08:31;;;;;;;9.10;8.40;;;0.50;73.10;;;;;;5195079;28;20069;-76
2021/01/24 05:11:06;;;;;;;8.85;8.15;;;0.40;72.50;;;;;;5187756;28;20049;-77
2021/01/24 05:13:38;;;;;;;8.70;8.00;;;0.40;72.40;;;;;;5195717;28;20076;-78
2021/01/24 05:16:09;;;;;;;9.40;8.70;;;0.50;72.90;;;;;;5193059;28;20107;-76
2021/01/24 05:18:41;;;;;;;9.25;8.55;;;0.50;72.90;;;;;;5195541;28;20041;-76
2021/01/24 05:21:12;;;;;;;9.40;8.70;;;0.50;73.70;;;;;;5193059;28;20452;-77
2021/01/24 05:23:44;;;;;;;9.40;8.70;;;0.40;72.60;;;;;;5195737;28;20041;-77
2021/01/24 05:26:15;;;;;;;9.73;9.02;;;0.40;72.60;;;;;;5194022;28;20041;-76
2021/01/24 05:28:48;;;;;;;9.07;8.38;;;0.40;72.60;;;;;;5189644;28;20077;-76
2021/01/24 05:31:22;;;;;;;9.40;8.70;;;0.30;71.40;;;;;;5190501;28;20041;-79
2021/01/24 05:33:57;;;;;;;9.20;8.50;;;0.20;72.30;;;;;;5191216;28;20042;-76
2021/01/24 05:36:40;;;;;;;9.35;8.65;;;0.20;73.90;;;;;;5193834;28;20049;-76
2021/01/24 05:39:13;;;;;;;9.07;8.38;;;0.20;74.40;;;;;;5191893;28;20053;-78
2021/01/24 05:41:53;;;;;;;8.77;8.07;;;0.30;73.40;;;;;;5193477;28;20041;-77
2021/01/24 05:44:25;;;;;;;9.18;8.48;;;0.20;72.60;;;;;;5196178;28;20162;-77
2021/01/24 05:47:03;;;;;;;9.45;8.75;;;0.20;73.40;;;;;;5194344;28;20210;-76
2021/01/24 05:49:36;;;;;;;8.80;8.10;;;0.20;73.70;;;;;;5193789;28;20037;-76
2021/01/24 05:52:08;;;;;;;9.00;8.30;;;0.20;73.90;;;;;;5193497;28;20474;-76
2021/01/24 05:54:42;;;;;;;8.85;8.15;;;0.20;74.20;;;;;;5195150;28;20041;-75
2021/01/24 05:57:15;;;;;;;9.40;8.68;;;0.20;73.60;;;;;;5179346;28;20551;-75
2021/01/24 05:59:55;;;;;;;8.93;8.23;;;0.10;73.30;;;;;;5193719;28;20041;-77
2021/01/24 06:02:27;;;;;;;9.13;8.43;;;0.10;73.10;;;;;;5194404;28;20119;-74
2021/01/24 06:04:59;;;;;;;8.88;8.07;;;0.20;72.80;;;;;;5194783;28;20033;-77
2021/01/24 06:07:33;;;;;;;9.07;8.38;;;0.20;72.80;;;;;;5191677;28;20523;-75
2021/01/24 06:10:05;;;;;;;9.13;8.43;;;0.30;72.50;;;;;;5192259;28;20034;-76
2021/01/24 06:12:39;;;;;;;9.50;8.80;;;0.30;73.00;;;;;;5193990;28;20045;-75
2021/01/24 06:15:13;;;;;;;8.95;8.25;;;0.20;71.80;;;;;;5193967;28;20045;-76
2021/01/24 06:17:46;;;;;;;8.63;7.93;;;0.20;71.80;;;;;;5179644;28;20041;-77
2021/01/24 06:20:20;;;;;;;8.90;8.20;;;0.20;71.00;;;;;;5191652;28;20049;-76
2021/01/24 06:22:59;;;;;;;8.30;7.60;;;0.20;70.50;;;;;;5187907;28;20568;-75
2021/01/24 06:25:43;;;;;;;7.93;7.30;;;0.10;69.00;;;;;;5191456;28;20042;-76
2021/01/24 06:28:25;;;;;;;8.00;7.40;;;0.00;68.80;;;;;;5197590;28;20042;-79
2021/01/24 06:30:57;;;;;;;7.95;7.35;;;-0.20;68.50;;;;;;5192195;28;20099;-75
2021/01/24 06:33:28;;;;;;;8.35;7.65;;;-0.20;68.40;;;;;;5193270;28;20049;-76
2021/01/24 06:36:02;;;;;;;8.57;7.88;;;-0.10;68.20;;;;;;5193990;28;20061;-75
2021/01/24 06:38:36;;;;;;;7.80;7.20;;;-0.10;69.00;;;;;;5192090;28;20131;-77
2021/01/24 06:41:11;;;;;;;8.70;8.00;;;-0.10;68.20;;;;;;5192955;28;20042;-75
2021/01/24 06:43:45;;;;;;;8.60;7.90;;;-0.20;68.50;;;;;;5191010;28;20405;-76
2021/01/24 06:46:29;;;;;;;8.18;7.57;;;-0.10;69.40;;;;;;5193458;28;20045;-76
2021/01/24 06:49:00;;;;;;;7.50;6.90;;;0.00;69.60;;;;;;5196371;28;20061;-76
2021/01/24 06:51:42;;;;;;;7.93;7.30;;;-0.10;68.30;;;;;;5196935;28;20041;-76
2021/01/24 06:54:16;;;;;;;7.13;6.53;;;-0.10;67.70;;;;;;5196333;28;20509;-76
2021/01/24 06:56:49;;;;;;;6.93;6.32;;;0.00;68.30;;;;;;5197113;28;20065;-77
2021/01/24 06:59:29;;;;;;;6.90;6.30;;;0.10;68.60;;;;;;5198712;28;20917;-76
2021/01/24 07:02:22;;;;;;;7.82;7.22;;;0.10;68.60;;;;;;5186706;28;20471;-76
2021/01/24 07:05:19;;;;;;;7.70;7.10;;;0.00;67.60;;;;;;5196362;28;20056;-75
2021/01/24 07:07:55;;;;;;;7.88;7.18;;;0.00;68.50;;;;;;5197580;28;20049;-76
2021/01/24 07:10:38;;;;;;;7.43;6.82;;;0.10;68.90;;;;;;5194530;28;20746;-72
2021/01/24 07:13:25;;;;;;;7.85;7.15;;;0.10;68.30;;;;;;5197943;28;20033;-73
2021/01/24 07:16:05;;;;;;;8.48;7.78;;;0.10;67.50;;;;;;5197778;28;20034;-73
2021/01/24 07:18:39;;;;;;;7.43;6.82;;;0.10;68.30;;;;;;5186608;28;20069;-73
2021/01/24 07:21:11;;;;;;;7.45;6.85;;;0.10;68.00;;;;;;5196233;28;20779;-71
2021/01/24 07:23:43;;;;;;;7.80;7.20;;;0.10;68.30;;;;;;5198595;28;20046;-72
2021/01/24 07:26:15;;;;;;;7.75;7.15;;;0.10;69.00;;;;;;5194613;28;20045;-73
2021/01/24 07:28:46;;;;;;;7.88;7.28;;;0.10;69.10;;;;;;5199349;28;20045;-73
2021/01/24 07:31:18;;;;;;;8.65;7.95;;;0.20;69.20;;;;;;5196591;28;20110;-73
2021/01/24 07:33:50;;;;;;;7.60;7.00;;;0.30;69.10;;;;;;5198989;28;20052;-73
2021/01/24 07:36:22;;;;;;;34.10;20.90;;;0.20;69.00;;;;;;5197804;28;20049;-72
2021/01/24 07:38:53;;;;;;;8.77;7.95;;;0.20;68.40;;;;;;5179421;28;20050;-73
2021/01/24 07:41:25;;;;;;;8.02;7.32;;;0.30;68.20;;;;;;5196045;28;20033;-72
2021/01/24 07:43:56;;;;;;;7.70;7.10;;;0.20;67.60;;;;;;5198695;28;20041;-72
2021/01/24 07:46:28;;;;;;;8.20;7.50;;;0.20;67.10;;;;;;5189900;28;20790;-71
2021/01/24 07:48:59;;;;;;;7.85;7.25;;;0.20;68.90;;;;;;5192150;28;20119;-72
2021/01/24 07:51:33;;;;;;;8.27;7.20;;;0.20;68.90;;;;;;5197330;28;20671;-73
2021/01/24 07:54:05;;;;;;;7.38;6.78;;;0.10;68.80;;;;;;5197834;28;20107;-70
2021/01/24 07:56:38;;;;;;;7.60;7.00;;;0.20;69.20;;;;;;5197576;28;20109;-70
2021/01/24 07:59:09;;;;;;;8.30;7.57;;;0.30;69.40;;;;;;5195271;28;20087;-72
2021/01/24 08:01:41;;;;;;;8.63;7.82;;;0.50;69.20;;;;;;5195151;28;20029;-70
2021/01/24 08:04:13;;;;;;;8.50;7.80;;;0.60;69.60;;;;;;5199382;28;20056;-73
2021/01/24 08:06:45;;;;;;;8.82;8.13;;;0.70;69.80;;;;;;5194717;28;20065;-74
2021/01/24 08:09:16;;;;;;;7.80;7.10;;;0.80;67.40;;;;;;5189095;28;20049;-73
2021/01/24 08:11:48;;;;;;;7.85;7.25;;;0.80;68.80;;;;;;5192346;28;20052;-72
2021/01/24 08:14:20;;;;;;;8.55;7.85;;;0.90;69.20;;;;;;5189765;28;20049;-73
2021/01/24 08:16:52;;;;;;;9.80;8.90;;;0.90;69.20;;;;;;5176953;28;20070;-72
2021/01/24 08:19:25;;;;;;;9.20;8.40;;;1.00;69.50;;;;;;5196554;28;20040;-74
2021/01/24 08:21:56;;;;;;;8.50;7.70;;;1.10;68.80;;;;;;5195906;28;20048;-72
2021/01/24 08:24:29;;;;;;;8.40;7.70;;;1.10;68.20;;;;;;5196640;28;20119;-74
2021/01/24 08:27:01;;;;;;;7.57;6.97;;;1.20;66.10;;;;;;5195040;28;20042;-74
2021/01/24 08:29:37;;;;;;;7.60;7.00;;;1.00;66.10;;;;;;5198485;28;20044;-75
2021/01/24 08:32:10;;;;;;;8.18;7.47;;;0.90;65.20;;;;;;5195515;28;20045;-74
2021/01/24 08:34:42;;;;;;;8.50;7.80;;;1.00;66.30;;;;;;5195305;28;20056;-71
2021/01/24 08:37:13;;;;;;;8.25;7.55;;;1.10;66.10;;;;;;5192703;28;20103;-74
2021/01/24 08:39:45;;;;;;;8.85;8.05;;;1.20;64.80;;;;;;5196782;28;20115;-72
2021/01/24 08:42:17;;;;;;;7.78;7.07;;;1.20;61.30;;;;;;5195400;28;20041;-73
2021/01/24 08:45:01;;;;;;;8.40;7.70;;;1.10;62.00;;;;;;5194256;28;20045;-71
2021/01/24 08:47:35;;;;;;;8.05;7.35;;;1.20;60.20;;;;;;5186113;28;20077;-71
2021/01/24 08:50:11;;;;;;;7.82;7.22;;;1.30;59.80;;;;;;5193127;28;20048;-70
2021/01/24 08:52:42;;;;;;;8.52;7.82;;;1.20;56.40;;;;;;5196669;28;20129;-70
2021/01/24 08:55:14;;;;;;;8.20;7.50;;;1.30;60.40;;;;;;5194031;28;20045;-70
2021/01/24 08:57:45;;;;;;;7.65;7.05;;;1.30;60.00;;;;;;5174039;28;20049;-70
2021/01/24 09:00:18;;;;;;;8.32;7.63;;;1.30;57.60;;;;;;5192275;28;20049;-72
2021/01/24 09:02:49;;;;;;;8.20;7.50;;;1.30;59.60;;;;;;5194160;28;20057;-71
2021/01/24 09:05:35;;;;;;;8.23;7.53;;;1.40;60.80;;;;;;5194862;28;20045;-70
2021/01/24 09:08:06;;;;;;;7.93;7.22;;;1.60;60.00;;;;;;5183296;28;20158;-70
2021/01/24 09:10:38;;;;;;;7.97;7.18;;;1.70;58.80;;;;;;5185518;28;20068;-71
2021/01/24 09:13:09;;;;;;;8.10;7.40;;;1.60;58.20;;;;;;5192509;28;20408;-70
2021/01/24 09:15:40;;;;;;;8.13;7.32;;;1.60;58.70;;;;;;5193369;28;20065;-72
2021/01/24 09:18:12;;;;;;;7.65;6.95;;;1.70;58.50;;;;;;5190925;28;21184;-71
2021/01/24 09:20:44;;;;;;;8.88;7.28;;;1.80;57.50;;;;;;5192304;28;20708;-73
2021/01/24 09:23:15;;;;;;;8.27;7.57;;;1.90;57.70;;;;;;5187669;28;20123;-72
2021/01/24 09:25:47;;;;;;;9.10;8.30;;;2.00;58.00;;;;;;5191856;28;20048;-73
2021/01/24 09:28:18;;;;;;;8.77;8.07;;;2.00;53.50;;;;;;5196826;28;20504;-71
2021/01/24 09:30:50;;;;;;;8.32;7.53;;;1.90;53.30;;;;;;5185976;28;20120;-71
2021/01/24 09:33:22;;;;;;;8.38;7.68;;;1.80;52.20;;;;;;5193894;28;20061;-72
2021/01/24 09:35:53;;;;;;;8.15;7.35;;;1.90;53.40;;;;;;5195114;28;20041;-72
2021/01/24 09:38:24;;;;;;;8.45;7.75;;;1.80;53.70;;;;;;5196087;28;20095;-70
2021/01/24 09:40:56;;;;;;;8.10;7.38;;;1.90;55.40;;;;;;5192025;28;20566;-69
2021/01/24 09:43:27;;;;;;;8.25;7.50;;;1.90;52.50;;;;;;5191495;28;20046;-70
2021/01/24 09:45:59;;;;;;;8.68;7.97;;;2.00;54.20;;;;;;5193693;28;20049;-70
2021/01/24 09:48:31;;;;;;;8.85;8.15;;;2.10;51.90;;;;;;5193764;28;20057;-70
2021/01/24 09:51:04;;;;;;;7.72;7.07;;;2.20;51.00;;;;;;5194377;28;20049;-72
2021/01/24 09:53:36;;;;;;;8.10;7.18;;;2.20;49.40;;;;;;5176878;28;20041;-70
2021/01/24 09:56:08;;;;;;;7.72;7.03;;;2.40;52.60;;;;;;5192081;28;20516;-71
2021/01/24 09:58:40;;;;;;;7.82;7.13;;;2.70;52.20;;;;;;5173882;28;20056;-70
2021/01/24 10:01:12;;;;;;;7.97;7.28;;;2.70;50.40;;;;;;5194068;28;20052;-73
2021/01/24 10:03:48;;;;;;;8.48;7.68;;;2.80;48.80;;;;;;5190326;28;20132;-70
2021/01/24 10:06:21;;;;;;;7.88;7.18;;;3.00;52.50;;;;;;5193426;28;20037;-72
2021/01/24 10:08:52;;;;;;;8.18;7.47;;;3.00;48.20;;;;;;5174685;28;20053;-72
2021/01/24 10:11:24;;;;;;;8.15;7.35;;;2.70;51.00;;;;;;5184546;28;20042;-70
2021/01/24 10:13:55;;;;;;;7.38;6.70;;;2.60;51.50;;;;;;5192762;28;20426;-72
2021/01/24 10:16:29;;;;;;;8.25;7.55;;;2.40;49.40;;;;;;5191164;28;20100;-71
2021/01/24 10:19:01;;;;;;;8.45;7.75;;;2.20;51.10;;;;;;5185815;28;20049;-72
2021/01/24 10:21:33;;;;;;;7.85;7.25;;;2.30;52.30;;;;;;5194313;28;20096;-71
2021/01/24 10:24:05;;;;;;;8.25;7.55;;;2.50;53.30;;;;;;5200366;28;20041;-72
2021/01/24 10:26:36;;;;;;;8.05;7.35;;;2.70;51.60;;;;;;5199413;28;20705;-70
2021/01/24 10:29:09;;;;;;;7.40;6.80;;;2.70;50.30;;;;;;5195723;28;20116;-72
2021/01/24 10:31:41;;;;;;;8.30;7.60;;;2.40;50.20;;;;;;5198068;28;20076;-73
2021/01/24 10:34:15;;;;;;;7.93;7.22;;;2.10;49.30;;;;;;5198305;28;20033;-72
2021/01/24 10:36:47;;;;;;;8.32;7.63;;;2.00;51.10;;;;;;5196398;28;20127;-71
2021/01/24 10:39:18;;;;;;;7.78;7.18;;;2.00;50.60;;;;;;5198491;28;20511;-72
2021/01/24 10:41:50;;;;;;;8.18;7.47;;;1.70;49.00;;;;;;5186690;28;20083;-70
2021/01/24 10:44:21;;;;;;;8.82;8.02;;;1.90;52.40;;;;;;5198192;28;20037;-71
2021/01/24 10:46:53;;;;;;;8.20;7.40;;;2.10;52.70;;;;;;5200297;28;20555;-70
2021/01/24 10:49:25;;;;;;;8.68;7.97;;;2.20;49.90;;;;;;5199062;28;20043;-72
2021/01/24 10:51:57;;;;;;;8.25;7.55;;;2.30;51.10;;;;;;5196705;28;20037;-71
2021/01/24 10:54:28;;;;;;;8.45;7.75;;;2.60;52.00;;;;;;5196227;28;20451;-71
2021/01/24 10:56:59;;;;;;;8.70;7.85;;;2.80;50.40;;;;;;5195345;28;20141;-71
2021/01/24 10:59:31;;;;;;;8.93;8.13;;;2.60;50.00;;;;;;5197136;28;20041;-72
2021/01/24 11:02:03;;;;;;;8.80;8.00;;;2.80;49.80;;;;;;5196620;28;20128;-73
2021/01/24 11:04:35;;;;;;;9.07;8.38;;;3.00;51.10;;;;;;5193889;28;20041;-71
2021/01/24 11:07:06;;;;;;;8.93;8.13;;;3.30;50.80;;;;;;5197440;28;20044;-73
2021/01/24 11:09:38;;;;;;;9.40;8.60;;;3.50;49.90;;;;;;5176730;28;20775;-71
2021/01/24 11:12:09;;;;;;;9.05;8.30;;;3.40;47.70;;;;;;5185845;28;20103;-73
2021/01/24 11:14:42;;;;;;;9.88;8.88;;;3.50;46.00;;;;;;5196913;28;20041;-71
2021/01/24 11:17:14;;;;;;;9.25;8.45;;;3.40;45.50;;;;;;5197647;28;20412;-72
2021/01/24 11:19:50;;;;;;;9.90;8.90;;;3.30;47.70;;;;;;5195195;28;20811;-71
2021/01/24 11:22:22;;;;;;;9.73;8.93;;;3.50;46.90;;;;;;5172264;28;20045;-71
2021/01/24 11:24:54;;;;;;;9.43;8.73;;;3.60;47.10;;;;;;5185394;28;20049;-71
2021/01/24 11:27:25;;;;;;;10.23;9.43;;;3.80;46.10;;;;;;5193463;28;20053;-75
2021/01/24 11:29:57;;;;;;;9.50;8.60;;;3.40;47.10;;;;;;5196886;28;20045;-72
2021/01/24 11:32:28;;;;;;;9.18;8.48;;;3.00;45.80;;;;;;5195892;28;20057;-73
2021/01/24 11:35:15;;;;;;;9.38;8.60;;;2.70;47.90;;;;;;5194633;28;20062;-73
2021/01/24 11:37:47;;;;;;;9.00;8.15;;;2.70;47.70;;;;;;5196996;28;20049;-73
2021/01/24 11:40:18;;;;;;;9.63;8.88;;;2.40;47.20;;;;;;5192077;28;20076;-73
2021/01/24 11:42:50;;;;;;;8.70;8.00;;;2.70;48.40;;;;;;5191438;28;20387;-72
2021/01/24 11:45:21;;;;;;;8.70;8.00;;;2.80;46.60;;;;;;5193138;28;20504;-71
2021/01/24 11:47:55;;;;;;;9.35;8.55;;;2.90;46.80;;;;;;5193155;28;20034;-70
2021/01/24 11:50:27;;;;;;;9.38;8.57;;;3.00;45.80;;;;;;5193461;28;20077;-72
2021/01/24 11:52:58;;;;;;;9.65;8.75;;;3.00;46.50;;;;;;5197225;28;20417;-71
2021/01/24 11:55:30;;;;;;;9.40;8.52;;;2.80;46.50;;;;;;5191954;28;20045;-72
2021/01/24 11:58:01;;;;;;;9.82;9.02;;;2.70;46.70;;;;;;5192601;28;20049;-73
2021/01/24 12:00:32;;;;;;;9.27;8.50;;;2.90;46.90;;;;;;5192950;28;20561;-73
2021/01/24 12:03:04;;;;;;;8.90;8.20;;;3.00;45.30;;;;;;5193864;28;20053;-73
2021/01/24 12:05:35;;;;;;;9.60;8.57;;;3.10;43.00;;;;;;5194067;28;20046;-72
2021/01/24 12:08:07;;;;;;;9.25;8.52;;;3.00;45.80;;;;;;5197474;28;20042;-72
2021/01/24 12:10:38;;;;;;;9.43;8.48;;;2.90;45.50;;;;;;5193607;28;20037;-73
2021/01/24 12:13:11;;;;;;;9.00;8.30;;;3.00;44.70;;;;;;5194910;28;20041;-73
2021/01/24 12:15:43;;;;;;;9.57;8.77;;;3.20;44.30;;;;;;5176284;28;20041;-72
2021/01/24 12:18:14;;;;;;;8.90;8.20;;;3.00;44.10;;;;;;5191931;28;20480;-71
2021/01/24 12:20:46;;;;;;;8.88;8.18;;;3.20;45.90;;;;;;5192614;28;20103;-74
2021/01/24 12:23:17;;;;;;;9.35;8.55;;;3.20;43.40;;;;;;5195198;28;20653;-74
2021/01/24 12:25:49;;;;;;;9.13;8.43;;;3.20;45.70;;;;;;5193406;28;20128;-72
2021/01/24 12:28:21;;;;;;;9.10;8.30;;;2.90;45.10;;;;;;5192900;28;20109;-73
2021/01/24 12:30:52;;;;;;;9.00;8.20;;;2.90;46.10;;;;;;5195200;28;20178;-74
2021/01/24 12:33:24;;;;;;;8.98;8.27;;;2.80;43.30;;;;;;5197091;28;20048;-73
2021/01/24 12:35:55;;;;;;;9.45;8.73;;;2.80;44.60;;;;;;5196435;28;21185;-74
2021/01/24 12:38:26;;;;;;;9.48;8.77;;;2.70;44.50;;;;;;5187186;28;20135;-71
2021/01/24 12:40:58;;;;;;;9.32;8.60;;;2.50;46.20;;;;;;5195821;28;20119;-71
2021/01/24 12:43:29;;;;;;;9.38;8.57;;;2.50;46.60;;;;;;5190184;28;20447;-73
2021/01/24 12:46:01;;;;;;;9.18;8.38;;;2.70;47.40;;;;;;5173405;28;20042;-74
2021/01/24 12:48:32;;;;;;;9.00;8.25;;;2.80;44.70;;;;;;5176660;28;20072;-76
2021/01/24 12:51:05;;;;;;;9.07;8.38;;;2.80;46.80;;;;;;5187887;28;20055;-76
2021/01/24 12:53:42;;;;;;;8.48;7.78;;;2.90;46.00;;;;;;5194086;28;20043;-73
2021/01/24 12:56:14;;;;;;;8.68;7.97;;;2.90;44.80;;;;;;5191741;28;20045;-73
2021/01/24 12:58:45;;;;;;;8.25;7.55;;;2.20;43.90;;;;;;5194033;28;20099;-71
2021/01/24 13:01:17;;;;;;;8.38;7.63;;;2.00;45.90;;;;;;5193791;28;20045;-72
2021/01/24 13:03:48;;;;;;;8.70;7.90;;;2.00;47.10;;;;;;5193803;28;20459;-73
2021/01/24 13:06:20;;;;;;;8.63;7.93;;;1.90;47.30;;;;;;5196255;28;20053;-74
2021/01/24 13:08:51;;;;;;;9.80;9.00;;;1.70;47.40;;;;;;5196168;28;20045;-73
2021/01/24 13:11:23;;;;;;;9.15;8.35;;;1.80;47.30;;;;;;5193134;28;20603;-75
2021/01/24 13:13:54;;;;;;;8.48;7.78;;;1.80;48.00;;;;;;5195555;28;20053;-71
2021/01/24 13:16:25;;;;;;;8.73;8.00;;;1.60;47.10;;;;;;5193002;28;20049;-73
2021/01/24 13:18:57;;;;;;;8.40;7.60;;;1.60;48.60;;;;;;5192405;28;20041;-72
2021/01/24 13:21:29;;;;;;;8.82;8.02;;;1.60;47.80;;;;;;5155555;28;20037;-70
2021/01/24 13:24:00;;;;;;;8.98;8.18;;;1.60;48.50;;;;;;5193337;28;20567;-69